Time;durP1;ratioP1;P1;durP2;ratioP2;P2;SDS_P1;SDS_P2;PMS_P1;PMS_P2;Temp;Humidity;BMP_temperature;BMP_pressure;BME280_temperature;BME280_humidity;BME280_pressure;Samples;Min_cycle;Max_cycle;Signal;HPM_P1;HPM_P2
2023/03/04 00:00:32;;;;;;;44.53;24.25;;;;;;;2.45;61.28;97107.66;4993577;28;20058;-77
2023/03/04 00:02:59;;;;;;;69.80;36.97;;;;;;;2.43;61.43;97109.53;4993925;28;20090;-77
2023/03/04 00:05:27;;;;;;;61.08;30.15;;;;;;;2.41;61.06;97112.22;4993594;28;20050;-77
2023/03/04 00:07:54;;;;;;;48.08;23.75;;;;;;;2.42;61.27;97110.44;4993351;28;20052;-77
2023/03/04 00:10:24;;;;;;;35.28;19.40;;;;;;;2.38;61.25;97109.84;4993552;28;20086;-77
2023/03/04 00:12:51;;;;;;;34.75;19.08;;;;;;;2.37;61.69;97108.22;4993399;28;20050;-77
2023/03/04 00:15:19;;;;;;;32.42;18.35;;;;;;;2.35;61.50;97112.69;4994085;28;20054;-77
2023/03/04 00:17:46;;;;;;;37.15;20.27;;;;;;;2.34;61.32;97105.06;4992441;28;20057;-77
2023/03/04 00:20:14;;;;;;;33.40;19.33;;;;;;;2.32;61.53;97107.78;4992957;28;20097;-77
2023/03/04 00:22:42;;;;;;;34.63;21.10;;;;;;;2.27;61.51;97104.72;4996292;28;20047;-77
2023/03/04 00:25:09;;;;;;;32.17;18.60;;;;;;;2.20;61.52;97106.13;4998113;28;20082;-78
2023/03/04 00:27:38;;;;;;;33.42;19.70;;;;;;;2.17;61.98;97106.38;5011543;28;20114;-78
2023/03/04 00:30:07;;;;;;;37.63;20.45;;;;;;;2.17;62.31;97103.81;5011919;28;20141;-78
2023/03/04 00:32:35;;;;;;;36.30;20.77;;;;;;;2.19;62.34;97101.94;5003201;28;20413;-78
2023/03/04 00:35:03;;;;;;;34.28;21.20;;;;;;;2.20;62.26;97096.66;4998008;28;20085;-77
2023/03/04 00:37:31;;;;;;;33.60;19.85;;;;;;;2.18;62.17;97095.13;4997501;28;20054;-77
2023/03/04 00:39:58;;;;;;;32.60;19.85;;;;;;;2.17;62.11;97098.66;4996217;28;20584;-77
2023/03/04 00:42:26;;;;;;;34.05;19.52;;;;;;;2.17;62.41;97099.47;4997188;28;20054;-77
2023/03/04 00:44:55;;;;;;;34.00;20.40;;;;;;;2.13;62.30;97103.22;4997496;28;20054;-77
2023/03/04 00:47:22;;;;;;;33.40;19.05;;;;;;;2.07;63.01;97093.38;4997141;28;20054;-77
2023/03/04 00:49:50;;;;;;;37.97;21.50;;;;;;;2.09;62.64;97095.84;4996272;28;20149;-77
2023/03/04 00:52:17;;;;;;;36.97;20.05;;;;;;;2.06;62.16;97094.31;4996820;28;20316;-76
2023/03/04 00:54:45;;;;;;;34.80;21.17;;;;;;;2.04;62.17;97097.00;4996502;28;20054;-77
2023/03/04 00:57:12;;;;;;;34.13;19.35;;;;;;;2.05;62.14;97093.47;4996862;28;20078;-77
2023/03/04 00:59:42;;;;;;;32.38;19.73;;;;;;;2.00;62.18;97090.44;4995653;28;20069;-77
2023/03/04 01:02:12;;;;;;;34.00;20.05;;;;;;;1.99;62.11;97100.84;4996653;28;20054;-77
2023/03/04 01:04:40;;;;;;;37.13;20.70;;;;;;;1.98;61.86;97087.16;4996697;28;20580;-77
2023/03/04 01:07:08;;;;;;;36.60;19.83;;;;;;;1.97;62.38;97087.31;4996332;28;20086;-77
2023/03/04 01:09:35;;;;;;;34.65;21.48;;;;;;;1.97;62.23;97090.69;4996220;28;20057;-77
2023/03/04 01:12:03;;;;;;;32.13;19.23;;;;;;;1.99;62.70;97085.41;4994872;28;20061;-77
2023/03/04 01:14:31;;;;;;;33.85;20.13;;;;;;;2.05;62.36;97084.94;4994608;28;20058;-77
2023/03/04 01:16:58;;;;;;;33.75;20.48;;;;;;;2.10;62.43;97074.31;4994880;28;20056;-77
2023/03/04 01:19:27;;;;;;;33.75;19.67;;;;;;;2.12;62.08;97080.16;5011941;28;20130;-78
2023/03/04 01:21:55;;;;;;;35.30;20.73;;;;;;;2.14;62.31;97073.13;5012684;28;20038;-78
2023/03/04 01:24:22;;;;;;;36.53;19.63;;;;;;;2.10;62.23;97074.31;5006203;28;20129;-77
2023/03/04 01:26:50;;;;;;;32.15;18.88;;;;;;;2.07;63.31;97072.78;4993916;28;20143;-77
2023/03/04 01:29:18;;;;;;;32.35;18.77;;;;;;;2.19;63.12;97066.72;4993917;28;20052;-77
2023/03/04 01:31:45;;;;;;;33.97;20.45;;;;;;;2.22;62.45;97065.66;5013368;28;20064;-77
2023/03/04 01:34:13;;;;;;;34.83;20.75;;;;;;;2.18;62.12;97066.81;4998113;28;20489;-76
2023/03/04 01:36:42;;;;;;;37.25;21.00;;;;;;;2.13;62.55;97071.50;4996042;28;20483;-77
2023/03/04 01:39:09;;;;;;;34.83;20.42;;;;;;;2.08;62.62;97064.16;4995436;28;20046;-77
2023/03/04 01:41:37;;;;;;;36.28;21.38;;;;;;;2.08;62.64;97063.31;4995947;28;20054;-77
2023/03/04 01:44:05;;;;;;;35.22;19.75;;;;;;;2.11;62.25;97063.09;4996259;28;20072;-77
2023/03/04 01:46:33;;;;;;;33.65;20.40;;;;;;;2.07;62.36;97054.78;4995838;28;20069;-77
2023/03/04 01:49:01;;;;;;;37.00;20.30;;;;;;;1.98;62.60;97064.00;4994960;28;20190;-77
2023/03/04 01:51:28;;;;;;;35.67;20.55;;;;;;;1.94;62.76;97052.31;4995133;28;20054;-76
2023/03/04 01:53:57;;;;;;;37.10;22.73;;;;;;;1.99;62.84;97059.69;4995598;28;20050;-77
2023/03/04 01:56:28;;;;;;;36.05;21.70;;;;;;;1.96;62.57;97062.50;4995124;28;20058;-76
2023/03/04 01:59:08;;;;;;;34.00;20.90;;;;;;;1.96;63.95;97065.88;4994820;28;20425;-77
2023/03/04 02:01:37;;;;;;;34.85;20.25;;;;;;;1.98;63.01;97055.47;4995274;28;20397;-77
2023/03/04 02:04:06;;;;;;;41.75;21.20;;;;;;;2.00;62.63;97051.03;4995326;28;20132;-77
2023/03/04 02:06:35;;;;;;;34.85;19.73;;;;;;;1.97;62.78;97059.81;4995450;28;20497;-76
2023/03/04 02:09:04;;;;;;;35.20;20.67;;;;;;;1.93;62.88;97058.41;4994736;28;20078;-77
2023/03/04 02:11:32;;;;;;;36.95;20.70;;;;;;;1.96;63.72;97060.75;4995790;28;20062;-76
2023/03/04 02:14:00;;;;;;;31.70;19.27;;;;;;;2.05;63.96;97062.59;4995028;28;20397;-77
2023/03/04 02:16:28;;;;;;;28.23;18.67;;;;;;;2.16;64.18;97061.78;4994835;28;20082;-77
2023/03/04 02:18:55;;;;;;;34.70;19.33;;;;;;;2.22;63.10;97061.31;4994392;28;20057;-77
2023/03/04 02:21:25;;;;;;;38.55;21.10;;;;;;;2.16;62.73;97061.78;4994971;28;20126;-77
2023/03/04 02:24:03;;;;;;;33.90;20.42;;;;;;;2.04;62.36;97062.75;4995024;28;20409;-77
2023/03/04 02:26:33;;;;;;;33.95;20.15;;;;;;;1.94;63.08;97059.22;4994742;28;20051;-77
2023/03/04 02:29:02;;;;;;;40.85;21.13;;;;;;;1.89;63.42;97061.34;4994277;28;20491;-77
2023/03/04 02:31:33;;;;;;;35.00;19.55;;;;;;;1.90;64.04;97052.66;4994896;28;20061;-76
2023/03/04 02:34:03;;;;;;;34.05;19.25;;;;;;;2.04;64.06;97058.41;4994866;28;20047;-76
2023/03/04 02:36:32;;;;;;;34.92;20.13;;;;;;;2.18;62.94;97061.66;5007542;28;20042;-77
2023/03/04 02:39:05;;;;;;;35.40;20.15;;;;;;;2.20;62.09;97062.38;5013968;28;20050;-77
2023/03/04 02:41:34;;;;;;;36.47;20.27;;;;;;;2.10;61.83;97056.28;5010651;28;20085;-77
2023/03/04 02:44:02;;;;;;;37.45;20.15;;;;;;;2.02;61.92;97055.13;4998607;28;20401;-77
2023/03/04 02:46:30;;;;;;;34.03;20.88;;;;;;;1.91;61.92;97062.03;4996906;28;20050;-77
2023/03/04 02:48:57;;;;;;;36.08;21.63;;;;;;;1.76;62.33;97056.28;4995701;28;20307;-76
2023/03/04 02:51:25;;;;;;;39.22;21.52;;;;;;;1.67;62.38;97060.38;4995140;28;20057;-77
2023/03/04 02:53:52;;;;;;;41.67;22.10;;;;;;;1.65;62.29;97063.06;4995049;28;20046;-77
2023/03/04 02:56:20;;;;;;;32.33;20.20;;;;;;;1.59;62.44;97055.78;4994929;28;20051;-77
2023/03/04 02:58:49;;;;;;;35.20;19.80;;;;;;;1.55;62.35;97059.53;4994491;28;20088;-77
2023/03/04 03:01:16;;;;;;;31.35;19.58;;;;;;;1.52;62.43;97054.63;4994368;28;20050;-76
2023/03/04 03:03:44;;;;;;;39.45;21.27;;;;;;;1.46;62.15;97049.09;5011196;28;20046;-76
2023/03/04 03:06:12;;;;;;;41.00;20.88;;;;;;;1.40;62.27;97060.66;5017977;28;20105;-76
2023/03/04 03:08:39;;;;;;;34.25;20.20;;;;;;;1.31;62.56;97045.91;5017746;28;20037;-77
2023/03/04 03:11:08;;;;;;;37.65;22.20;;;;;;;1.24;62.44;97053.25;5000192;28;20124;-76
2023/03/04 03:13:35;;;;;;;39.55;22.15;;;;;;;1.13;62.96;97050.66;4997649;28;20056;-77
2023/03/04 03:16:05;;;;;;;37.25;22.30;;;;;;;1.07;63.34;97051.91;4996355;28;20105;-77
2023/03/04 03:18:33;;;;;;;35.47;20.88;;;;;;;1.06;63.95;97045.16;4994498;28;20538;-77
2023/03/04 03:21:00;;;;;;;40.10;21.33;;;;;;;1.09;63.75;97056.94;4994776;28;20054;-77
2023/03/04 03:23:28;;;;;;;38.65;22.45;;;;;;;1.10;63.27;97059.41;4994266;28;20051;-76
2023/03/04 03:25:55;;;;;;;38.40;21.55;;;;;;;1.09;63.97;97060.31;4994378;28;20050;-77
2023/03/04 03:28:23;;;;;;;38.72;22.08;;;;;;;1.12;63.60;97060.13;5004924;28;20113;-77
2023/03/04 03:30:50;;;;;;;36.00;22.52;;;;;;;1.20;64.35;97062.97;5011704;28;20050;-77
2023/03/04 03:33:19;;;;;;;37.22;23.23;;;;;;;1.28;63.35;97053.88;5000954;28;20528;-77
2023/03/04 03:35:47;;;;;;;37.22;22.35;;;;;;;1.26;62.86;97053.97;4997333;28;20057;-77
2023/03/04 03:38:15;;;;;;;37.97;22.45;;;;;;;1.27;62.95;97062.50;4995616;28;20081;-77
2023/03/04 03:40:42;;;;;;;41.88;23.65;;;;;;;1.20;62.74;97060.41;4994508;28;20053;-77
2023/03/04 03:43:10;;;;;;;39.22;22.13;;;;;;;1.20;63.55;97062.97;4994560;28;20062;-77
2023/03/04 03:45:38;;;;;;;37.08;22.63;;;;;;;1.23;63.34;97057.59;4994965;28;20053;-77
2023/03/04 03:48:06;;;;;;;40.78;23.48;;;;;;;1.26;63.33;97053.16;4993428;28;20080;-77
2023/03/04 03:50:35;;;;;;;41.42;23.60;;;;;;;1.23;62.58;97051.63;4999168;28;20074;-77
2023/03/04 03:53:02;;;;;;;40.67;24.13;;;;;;;1.19;62.53;97048.47;5015531;28;20058;-77
2023/03/04 03:55:30;;;;;;;44.55;25.77;;;;;;;1.14;62.60;97047.97;5015117;28;20050;-76
2023/03/04 03:57:57;;;;;;;44.15;25.55;;;;;;;1.05;62.64;97055.53;4993683;28;20058;-77
2023/03/04 04:00:25;;;;;;;44.53;26.77;;;;;;;0.94;62.91;97051.16;4994287;28;20424;-77
2023/03/04 04:02:54;;;;;;;46.90;27.33;;;;;;;0.85;63.09;97052.63;4994351;28;20057;-77
2023/03/04 04:05:22;;;;;;;43.88;25.98;;;;;;;0.77;63.28;97055.78;4996654;28;20145;-77
2023/03/04 04:07:50;;;;;;;38.78;24.85;;;;;;;0.71;63.43;97051.06;4993648;28;20086;-77
2023/03/04 04:10:21;;;;;;;43.95;26.42;;;;;;;0.68;63.80;97053.03;4993820;28;20082;-77
2023/03/04 04:12:48;;;;;;;42.97;25.23;;;;;;;0.69;63.21;97052.13;4993507;28;20085;-77
2023/03/04 04:15:16;;;;;;;47.03;26.58;;;;;;;0.72;63.82;97054.44;4993818;28;20042;-77
2023/03/04 04:17:43;;;;;;;43.28;25.55;;;;;;;0.74;63.97;97060.28;4993246;28;20097;-77
2023/03/04 04:20:12;;;;;;;47.67;26.20;;;;;;;0.79;63.67;97056.50;4993591;28;20134;-77
2023/03/04 04:22:39;;;;;;;45.47;25.63;;;;;;;0.80;63.54;97052.97;4993275;28;20497;-77
2023/03/04 04:25:09;;;;;;;44.03;24.92;;;;;;;0.77;63.55;97052.41;4993073;28;20053;-77
2023/03/04 04:27:37;;;;;;;40.38;25.23;;;;;;;0.72;63.59;97047.59;4993385;28;20054;-77
2023/03/04 04:30:06;;;;;;;42.88;24.52;;;;;;;0.68;63.54;97048.72;4993230;28;20046;-77
2023/03/04 04:32:34;;;;;;;46.10;27.00;;;;;;;0.67;63.59;97048.84;4993494;28;20138;-76
2023/03/04 04:35:01;;;;;;;45.17;25.48;;;;;;;0.60;63.77;97054.41;4993327;28;20081;-77
2023/03/04 04:37:29;;;;;;;42.63;26.05;;;;;;;0.56;64.16;97057.28;4993409;28;20046;-77
2023/03/04 04:39:56;;;;;;;44.78;24.80;;;;;;;0.61;64.07;97055.22;4992209;28;20050;-77
2023/03/04 04:42:25;;;;;;;44.35;25.02;;;;;;;0.62;63.92;97051.72;4992920;28;20061;-77
2023/03/04 04:44:53;;;;;;;47.60;26.13;;;;;;;0.62;63.60;97051.72;4993801;28;20129;-77
2023/03/04 04:47:20;;;;;;;45.00;25.15;;;;;;;0.58;63.57;97048.56;4993272;28;20492;-77
2023/03/04 04:49:48;;;;;;;46.40;26.63;;;;;;;0.52;63.95;97050.72;4992485;28;20046;-76
2023/03/04 04:52:15;;;;;;;48.08;26.50;;;;;;;0.48;63.83;97051.88;4992797;28;20523;-77
2023/03/04 04:54:43;;;;;;;43.95;26.30;;;;;;;0.44;63.69;97047.88;4993387;28;20090;-77
2023/03/04 04:57:10;;;;;;;46.53;26.60;;;;;;;0.37;63.92;97053.47;5013824;28;20065;-77
2023/03/04 04:59:39;;;;;;;46.72;25.42;;;;;;;0.32;64.15;97050.38;5015200;28;20031;-77
2023/03/04 05:02:07;;;;;;;42.72;24.30;;;;;;;0.26;64.20;97052.56;5006529;28;20424;-77
2023/03/04 05:04:34;;;;;;;47.20;25.73;;;;;;;0.21;64.32;97052.88;4994191;28;20061;-77
2023/03/04 05:07:02;;;;;;;46.17;25.77;;;;;;;0.12;64.65;97054.31;4993111;28;20054;-77
2023/03/04 05:09:29;;;;;;;45.58;25.92;;;;;;;0.07;64.76;97058.16;4996449;28;20089;-77
2023/03/04 05:11:57;;;;;;;49.47;27.55;;;;;;;0.02;64.88;97055.88;4996863;28;20516;-76
2023/03/04 05:14:25;;;;;;;47.33;26.05;;;;;;;0.02;65.15;97063.56;4996226;28;20501;-77
2023/03/04 05:16:53;;;;;;;45.83;25.08;;;;;;;0.04;65.34;97069.41;4996814;28;20129;-77
2023/03/04 05:19:21;;;;;;;42.35;24.85;;;;;;;0.05;64.89;97067.69;4995519;28;20136;-77
2023/03/04 05:21:49;;;;;;;46.03;24.75;;;;;;;0.02;65.03;97063.56;5001976;28;20082;-80
2023/03/04 05:24:16;;;;;;;48.00;25.75;;;;;;;0.04;64.96;97055.78;5003165;28;20050;-76
2023/03/04 05:26:44;;;;;;;41.20;23.17;;;;;;;0.06;64.82;97062.44;4996189;28;20060;-76
2023/03/04 05:29:12;;;;;;;40.97;23.40;;;;;;;0.04;64.83;97063.47;4995641;28;20052;-76
2023/03/04 05:31:39;;;;;;;40.97;24.10;;;;;;;0.00;64.58;97070.56;4999717;28;20046;-76
2023/03/04 05:34:08;;;;;;;48.30;26.05;;;;;;;-0.04;64.94;97064.81;4997038;28;20469;-76
2023/03/04 05:36:36;;;;;;;47.25;23.25;;;;;;;0.01;65.61;97066.25;4995469;28;20054;-76
2023/03/04 05:39:03;;;;;;;36.00;21.45;;;;;;;0.13;65.72;97060.28;4995044;28;20054;-76
2023/03/04 05:41:31;;;;;;;41.53;23.33;;;;;;;0.17;64.89;97071.97;4995676;28;20058;-76
2023/03/04 05:43:58;;;;;;;34.13;20.63;;;;;;;0.16;64.51;97065.22;4996456;28;20053;-76
2023/03/04 05:46:26;;;;;;;38.42;23.60;;;;;;;0.17;64.55;97072.78;4995493;28;20060;-75
2023/03/04 05:48:54;;;;;;;40.67;22.15;;;;;;;0.18;64.38;97073.63;4995164;28;20081;-76
2023/03/04 05:51:23;;;;;;;38.25;21.45;;;;;;;0.12;64.12;97071.47;4995518;28;20475;-76
2023/03/04 05:53:51;;;;;;;32.88;20.65;;;;;;;0.09;64.46;97077.63;4995455;28;20129;-76
2023/03/04 05:56:20;;;;;;;35.28;20.10;;;;;;;0.11;65.06;97074.94;4995776;28;20052;-76
2023/03/04 05:58:47;;;;;;;34.97;22.30;;;;;;;0.10;64.38;97075.88;4995045;28;20078;-76
2023/03/04 06:01:15;;;;;;;37.55;20.80;;;;;;;0.09;64.55;97076.78;4996163;28;20062;-80
2023/03/04 06:03:43;;;;;;;33.35;19.58;;;;;;;0.13;64.72;97073.09;4998058;28;20054;-77
2023/03/04 06:06:11;;;;;;;39.83;22.88;;;;;;;0.15;64.14;97073.81;5010167;28;20054;-77
2023/03/04 06:08:40;;;;;;;39.97;22.50;;;;;;;0.18;64.45;97081.31;5014612;28;20093;-76
2023/03/04 06:11:08;;;;;;;40.72;24.67;;;;;;;0.21;64.33;97078.53;5013433;28;20049;-76
2023/03/04 06:13:37;;;;;;;43.25;23.83;;;;;;;0.23;64.51;97084.38;4987453;28;20057;-76
2023/03/04 06:16:05;;;;;;;46.17;24.95;;;;;;;0.24;64.31;97088.59;5027722;28;20081;-78
2023/03/04 06:18:32;;;;;;;46.58;24.52;;;;;;;0.24;64.44;97086.03;5032894;28;20069;-78
2023/03/04 06:21:02;;;;;;;47.03;24.38;;;;;;;0.29;64.24;97090.84;5022252;28;20085;-77
2023/03/04 06:23:30;;;;;;;47.72;26.38;;;;;;;0.29;63.90;97096.78;4997712;28;20050;-77
2023/03/04 06:26:01;;;;;;;41.45;23.30;;;;;;;0.26;64.31;97098.72;4999470;28;20030;-77
2023/03/04 06:28:29;;;;;;;38.03;22.73;;;;;;;0.31;64.59;97099.25;5007671;28;20050;-77
2023/03/04 06:30:57;;;;;;;39.67;23.75;;;;;;;0.36;64.24;97108.25;4996207;28;20042;-76
2023/03/04 06:33:25;;;;;;;38.80;21.42;;;;;;;0.40;63.98;97104.56;4991615;28;20081;-76
2023/03/04 06:35:55;;;;;;;39.03;23.52;;;;;;;0.37;64.05;97111.66;4994774;28;20464;-76
2023/03/04 06:38:24;;;;;;;38.13;22.42;;;;;;;0.37;64.32;97115.06;5009638;28;20046;-76
2023/03/04 06:40:52;;;;;;;41.67;23.25;;;;;;;0.44;64.83;97114.59;5006444;28;20046;-77
2023/03/04 06:43:24;;;;;;;43.40;24.50;;;;;;;0.47;65.07;97112.66;5014241;28;20055;-76
2023/03/04 06:45:52;;;;;;;44.88;26.20;;;;;;;0.49;65.03;97112.56;4999612;28;20058;-76
2023/03/04 06:48:20;;;;;;;47.28;26.75;;;;;;;0.50;65.26;97114.19;4988167;28;20091;-76
2023/03/04 06:50:47;;;;;;;48.25;27.77;;;;;;;0.53;65.50;97121.69;4995669;28;20074;-76
2023/03/04 06:53:15;;;;;;;48.70;28.85;;;;;;;0.54;65.44;97120.75;4980463;28;20051;-76
2023/03/04 06:55:42;;;;;;;49.38;28.00;;;;;;;0.52;65.96;97125.16;4994046;28;20724;-76
2023/03/04 06:58:12;;;;;;;45.13;26.00;;;;;;;0.55;65.92;97123.22;4985037;28;20508;-76
2023/03/04 07:00:41;;;;;;;53.47;30.73;;;;;;;0.57;65.75;97133.41;4987504;28;20051;-75
2023/03/04 07:03:09;;;;;;;46.03;25.85;;;;;;;0.56;65.98;97135.13;5014045;22;20108;-75
2023/03/04 07:05:36;;;;;;;43.75;26.60;;;;;;;0.60;66.04;97140.88;4993534;28;20054;-75
2023/03/04 07:08:05;;;;;;;47.92;26.08;;;;;;;0.69;65.96;97140.22;4988309;28;20158;-75
2023/03/04 07:10:33;;;;;;;39.20;22.95;;;;;;;0.80;66.02;97142.84;4974547;28;20061;-74
2023/03/04 07:13:01;;;;;;;40.83;24.75;;;;;;;0.91;65.56;97146.44;4977110;28;20050;-75
2023/03/04 07:15:29;;;;;;;38.53;23.17;;;;;;;0.98;65.55;97150.19;4990990;28;20053;-75
2023/03/04 07:17:58;;;;;;;40.40;23.60;;;;;;;0.97;65.36;97144.25;4993699;28;20564;-74
2023/03/04 07:20:25;;;;;;;40.60;21.88;;;;;;;0.98;66.06;97151.03;4991227;28;20068;-75
2023/03/04 07:22:53;;;;;;;42.30;22.05;;;;;;;1.01;65.68;97155.94;4974983;28;20057;-75
2023/03/04 07:25:20;;;;;;;34.88;18.90;;;;;;;1.00;65.58;97161.19;4990032;28;20543;-75
2023/03/04 07:27:48;;;;;;;39.85;19.92;;;;;;;0.96;66.02;97149.47;4985101;28;20050;-75
2023/03/04 07:30:16;;;;;;;34.25;19.67;;;;;;;0.90;66.08;97170.50;4986394;28;20058;-75
2023/03/04 07:32:43;;;;;;;32.65;18.40;;;;;;;0.88;66.50;97169.78;4975099;28;20082;-75
2023/03/04 07:35:12;;;;;;;33.08;17.67;;;;;;;0.87;66.77;97175.81;4989350;28;20051;-75
2023/03/04 07:37:40;;;;;;;32.00;17.00;;;;;;;0.82;66.66;97176.16;4978851;28;20129;-75
2023/03/04 07:40:09;;;;;;;37.40;18.67;;;;;;;0.73;66.46;97180.19;4984554;28;20088;-75
2023/03/04 07:42:37;;;;;;;33.30;17.98;;;;;;;0.66;66.88;97176.41;4989443;28;20051;-75
2023/03/04 07:45:06;;;;;;;31.38;16.35;;;;;;;0.58;66.93;97178.66;4974229;28;20082;-74
2023/03/04 07:47:36;;;;;;;35.10;17.23;;;;;;;0.47;67.18;97181.97;4978149;28;20142;-75
2023/03/04 07:50:04;;;;;;;33.30;16.52;;;;;;;0.44;67.70;97181.34;4982412;28;20109;-75
2023/03/04 07:52:33;;;;;;;34.15;17.63;;;;;;;0.39;67.97;97182.50;4975399;28;20065;-74
2023/03/04 07:55:01;;;;;;;27.30;14.63;;;;;;;0.38;67.98;97178.28;4980690;28;20062;-75
2023/03/04 07:57:29;;;;;;;30.50;14.90;;;;;;;0.39;67.73;97179.94;4973303;28;20166;-75
2023/03/04 07:59:56;;;;;;;29.30;15.18;;;;;;;0.38;68.22;97178.28;4973613;28;20054;-75
2023/03/04 08:02:24;;;;;;;25.25;14.30;;;;;;;0.41;67.87;97182.38;4980299;28;20053;-75
2023/03/04 08:04:51;;;;;;;26.00;14.57;;;;;;;0.40;67.91;97180.75;4988598;28;20050;-75
2023/03/04 08:07:19;;;;;;;29.20;15.43;;;;;;;0.39;67.88;97192.75;4992571;28;20045;-75
2023/03/04 08:09:48;;;;;;;26.85;14.60;;;;;;;0.37;68.24;97201.47;4991967;28;20129;-74
2023/03/04 08:12:16;;;;;;;27.00;14.95;;;;;;;0.32;67.98;97188.13;4993370;28;20069;-75
2023/03/04 08:14:43;;;;;;;28.83;15.57;;;;;;;0.27;68.51;97187.63;4981284;28;20058;-75
2023/03/04 08:17:13;;;;;;;30.17;15.50;;;;;;;0.25;68.50;97190.28;4990889;28;20042;-74
2023/03/04 08:19:41;;;;;;;29.30;15.60;;;;;;;0.26;68.68;97185.97;4985909;28;20142;-75
2023/03/04 08:22:08;;;;;;;29.00;14.93;;;;;;;0.28;68.81;97192.63;4973988;28;20073;-75
2023/03/04 08:24:36;;;;;;;25.33;14.13;;;;;;;0.29;69.14;97189.16;4983238;28;20046;-75
2023/03/04 08:27:05;;;;;;;26.40;13.90;;;;;;;0.36;69.41;97187.00;4983506;28;20043;-75
2023/03/04 08:29:33;;;;;;;29.02;15.18;;;;;;;0.40;68.69;97189.25;4973327;28;20120;-75
2023/03/04 08:32:00;;;;;;;28.35;14.77;;;;;;;0.35;68.43;97199.03;4973596;28;20185;-75
2023/03/04 08:34:28;;;;;;;28.25;15.65;;;;;;;0.29;68.73;97204.56;4973978;28;20054;-75
2023/03/04 08:36:56;;;;;;;25.92;13.23;;;;;;;0.32;68.85;97194.06;4973176;28;20059;-75
2023/03/04 08:39:23;;;;;;;27.98;14.27;;;;;;;0.31;68.68;97200.16;4973937;28;20050;-75
2023/03/04 08:41:51;;;;;;;23.52;13.18;;;;;;;0.34;68.63;97196.56;4992998;28;20138;-75
2023/03/04 08:44:20;;;;;;;25.40;13.60;;;;;;;0.35;68.91;97199.03;4989075;28;20461;-75
2023/03/04 08:46:47;;;;;;;25.23;14.05;;;;;;;0.41;68.93;97197.78;4988808;28;20129;-75
2023/03/04 08:49:15;;;;;;;28.00;14.93;;;;;;;0.55;69.19;97202.00;4975943;28;20566;-75
2023/03/04 08:51:44;;;;;;;24.42;13.88;;;;;;;0.67;68.43;97201.13;4977271;28;20493;-75
2023/03/04 08:54:11;;;;;;;25.55;13.05;;;;;;;0.77;68.28;97209.03;4995575;28;20052;-75
2023/03/04 08:56:40;;;;;;;22.95;13.23;;;;;;;0.88;68.19;97200.59;4980024;28;20043;-75
2023/03/04 08:59:08;;;;;;;22.48;12.52;;;;;;;0.87;67.54;97197.19;4996369;28;20046;-74
2023/03/04 09:01:36;;;;;;;18.83;11.88;;;;;;;0.92;68.43;97207.13;4984969;28;20059;-75
2023/03/04 09:04:04;;;;;;;19.35;12.15;;;;;;;0.95;67.59;97200.03;4976793;28;20050;-76
2023/03/04 09:06:32;;;;;;;19.67;11.52;;;;;;;1.03;67.97;97209.81;4976162;28;20054;-75
2023/03/04 09:08:59;;;;;;;21.55;12.27;;;;;;;1.09;67.77;97205.97;4976390;28;20050;-75
2023/03/04 09:11:27;;;;;;;24.20;12.95;;;;;;;1.08;67.54;97210.28;4976615;28;20054;-75
2023/03/04 09:13:55;;;;;;;25.48;14.05;;;;;;;1.03;67.61;97200.34;4979872;28;20133;-75
2023/03/04 09:16:23;;;;;;;21.17;12.68;;;;;;;1.08;67.76;97205.16;4986494;28;20053;-75
2023/03/04 09:18:52;;;;;;;22.00;12.70;;;;;;;1.19;67.34;97205.22;4975593;28;20057;-75
2023/03/04 09:21:19;;;;;;;23.45;13.38;;;;;;;1.23;66.95;97198.94;4976928;28;20055;-75
2023/03/04 09:23:47;;;;;;;25.40;13.80;;;;;;;1.26;67.41;97204.78;4984751;28;20124;-75
2023/03/04 09:26:17;;;;;;;22.52;12.27;;;;;;;1.34;66.81;97203.31;4996392;28;20058;-76
2023/03/04 09:28:44;;;;;;;19.38;11.60;;;;;;;1.38;67.02;97198.78;4985924;28;20051;-75
2023/03/04 09:31:13;;;;;;;23.33;12.73;;;;;;;1.48;67.34;97204.88;4977270;28;20133;-75
2023/03/04 09:33:42;;;;;;;23.45;13.15;;;;;;;1.54;66.75;97212.16;4976850;28;20054;-74
2023/03/04 09:36:13;;;;;;;21.90;13.07;;;;;;;1.56;66.80;97209.50;4976888;28;20445;-75
2023/03/04 09:38:41;;;;;;;20.10;12.00;;;;;;;1.56;66.72;97210.31;4990695;28;20059;-75
2023/03/04 09:41:14;;;;;;;22.02;12.88;;;;;;;1.60;67.13;97208.34;4995374;28;20050;-74
2023/03/04 09:43:44;;;;;;;21.05;13.05;;;;;;;1.69;67.16;97206.84;4995269;28;20054;-75
2023/03/04 09:46:14;;;;;;;23.63;12.82;;;;;;;1.82;66.60;97207.59;4982013;28;20050;-74
2023/03/04 09:48:46;;;;;;;22.73;13.43;;;;;;;1.90;66.68;97205.25;4991375;28;20680;-75
2023/03/04 09:51:40;;;;;;;21.92;12.95;;;;;;;1.91;66.41;97206.91;4977108;28;20047;-75
2023/03/04 09:54:10;;;;;;;27.23;14.45;;;;;;;1.90;66.24;97202.69;4975678;28;20532;-75
2023/03/04 09:56:40;;;;;;;25.35;13.80;;;;;;;1.90;66.03;97210.41;4977181;28;20057;-75
2023/03/04 09:59:17;;;;;;;23.77;13.57;;;;;;;1.89;66.61;97206.22;4976736;28;20057;-75
2023/03/04 10:01:49;;;;;;;24.52;13.20;;;;;;;1.86;66.79;97209.03;4975704;28;20531;-76
2023/03/04 10:04:26;;;;;;;27.80;15.23;;;;;;;1.82;66.76;97200.69;4990272;28;20125;-75
2023/03/04 10:06:56;;;;;;;22.15;13.05;;;;;;;1.83;67.08;97198.94;4994817;28;20055;-75
2023/03/04 10:09:28;;;;;;;24.45;13.65;;;;;;;1.90;66.40;97200.13;4992997;28;20493;-77
2023/03/04 10:12:02;;;;;;;27.50;15.82;;;;;;;1.85;66.11;97199.66;4993567;28;20423;-74
2023/03/04 10:14:35;;;;;;;26.42;14.90;;;;;;;1.83;66.85;97204.09;4980239;28;20054;-75
2023/03/04 10:17:10;;;;;;;22.85;13.52;;;;;;;1.91;66.31;97198.38;4987683;28;20065;-77
2023/03/04 10:19:49;;;;;;;28.90;15.63;;;;;;;1.91;66.47;97196.63;4978411;28;20046;-75
2023/03/04 10:22:26;;;;;;;22.30;13.85;;;;;;;1.89;66.44;97195.09;5004818;28;20053;-73
2023/03/04 10:24:56;;;;;;;25.23;13.82;;;;;;;1.91;65.96;97199.19;4997694;28;20042;-74
2023/03/04 10:27:25;;;;;;;29.63;16.02;;;;;;;1.93;65.85;97194.78;4998281;28;20102;-73
2023/03/04 10:29:53;;;;;;;25.50;14.73;;;;;;;1.86;65.98;97193.59;5012079;28;20074;-74
2023/03/04 10:32:20;;;;;;;26.80;14.55;;;;;;;1.78;66.24;97196.72;4992164;28;20130;-74
2023/03/04 10:34:48;;;;;;;27.33;15.30;;;;;;;1.70;66.61;97199.00;4974301;28;20047;-74
2023/03/04 10:37:17;;;;;;;26.58;14.38;;;;;;;1.67;66.58;97198.44;4978350;28;20561;-74
2023/03/04 10:39:48;;;;;;;27.05;14.77;;;;;;;1.59;66.57;97197.22;4992083;28;20512;-74
2023/03/04 10:42:35;;;;;;;25.83;14.02;;;;;;;1.62;66.95;97196.19;4993189;28;20081;-74
2023/03/04 10:45:18;;;;;;;25.77;15.52;;;;;;;1.68;66.96;97202.63;4993617;28;20074;-73
2023/03/04 10:47:52;;;;;;;26.88;14.93;;;;;;;1.72;67.62;97199.72;4972789;28;20126;-74
2023/03/04 10:50:23;;;;;;;30.98;17.30;;;;;;;1.77;67.27;97200.22;4974229;28;20043;-75
2023/03/04 10:52:54;;;;;;;34.50;17.75;;;;;;;1.83;67.11;97193.78;4973901;28;20138;-74
2023/03/04 10:55:24;;;;;;;30.23;17.63;;;;;;;1.84;66.90;97201.41;4974282;28;20085;-74
2023/03/04 10:57:54;;;;;;;31.60;15.73;;;;;;;1.82;67.09;97189.59;4985793;28;20430;-73
2023/03/04 11:00:28;;;;;;;29.70;15.05;;;;;;;1.88;67.27;97186.56;4993348;28;20093;-74
2023/03/04 11:03:23;;;;;;;30.37;16.33;;;;;;;1.96;67.03;97181.66;4949947;28;1010478;-75
2023/03/04 11:06:05;;;;;;;29.08;16.08;;;;;;;2.01;67.46;97189.03;4984861;28;20081;-75
2023/03/04 11:08:34;;;;;;;29.17;16.90;;;;;;;2.00;66.98;97177.94;4989004;28;20050;-75
2023/03/04 11:11:02;;;;;;;27.38;15.23;;;;;;;2.09;66.85;97178.19;4976896;28;20138;-76
2023/03/04 11:13:31;;;;;;;26.05;14.00;;;;;;;2.14;66.05;97171.75;4974751;28;20050;-75
2023/03/04 11:16:01;;;;;;;27.70;15.75;;;;;;;2.21;66.50;97183.25;4974832;28;20062;-75
2023/03/04 11:18:40;;;;;;;27.60;15.15;;;;;;;2.29;66.36;97174.94;4974116;28;20047;-76
2023/03/04 11:21:16;;;;;;;20.77;13.32;;;;;;;2.29;66.21;97168.97;4981375;28;20051;-76
2023/03/04 11:23:50;;;;;;;28.80;16.10;;;;;;;2.27;66.36;97174.22;4989022;28;20046;-74
2023/03/04 11:26:21;;;;;;;25.75;14.75;;;;;;;2.23;65.91;97162.50;4993495;28;20096;-74
2023/03/04 11:28:54;;;;;;;25.38;14.50;;;;;;;2.22;65.90;97166.84;4993187;28;20070;-74
2023/03/04 11:31:27;;;;;;;24.20;12.98;;;;;;;2.24;65.84;97157.25;4986451;28;20047;-75